createdAt,value
2018-05-11T00:01:48.115Z,84.17
2018-05-11T00:04:15.795Z,84.14
2018-05-11T00:06:43.309Z,84.29
2018-05-11T00:09:10.840Z,84.33
2018-05-11T00:11:38.517Z,84.30
2018-05-11T00:14:06.043Z,84.10
2018-05-11T00:16:33.566Z,84.21
2018-05-11T00:19:01.114Z,84.39
2018-05-11T00:21:28.644Z,84.20
2018-05-11T00:23:56.309Z,84.43
2018-05-11T00:26:23.845Z,84.46
2018-05-11T00:28:51.362Z,84.76
2018-05-11T00:31:18.906Z,84.66
2018-05-11T00:33:46.445Z,84.72
2018-05-11T00:36:13.977Z,84.83
2018-05-11T00:38:41.637Z,84.72
2018-05-11T00:41:09.179Z,84.80
2018-05-11T00:43:36.714Z,84.78
2018-05-11T00:46:04.450Z,84.74
2018-05-11T00:48:31.969Z,84.79
2018-05-11T00:50:59.510Z,84.71
2018-05-11T00:53:27.465Z,84.70
2018-05-11T00:55:55.007Z,84.66
2018-05-11T00:58:22.529Z,84.64
2018-05-11T01:00:50.101Z,84.39
2018-05-11T01:03:17.630Z,84.43
2018-05-11T01:05:45.151Z,84.65
2018-05-11T01:08:12.698Z,84.66
2018-05-11T01:10:40.226Z,84.74
2018-05-11T01:13:07.791Z,84.82
2018-05-11T01:15:35.323Z,84.92
2018-05-11T01:18:02.997Z,84.87
2018-05-11T01:20:30.526Z,84.85
2018-05-11T01:22:58.045Z,85.04
2018-05-11T01:25:25.602Z,85.26
2018-05-11T01:27:53.151Z,85.32
2018-05-11T01:30:20.857Z,84.65
2018-05-11T01:32:48.382Z,84.47
2018-05-11T01:35:15.905Z,84.26
2018-05-11T01:37:43.482Z,85.02
2018-05-11T01:40:11.019Z,85.27
2018-05-11T01:42:38.546Z,85.01
2018-05-11T01:45:06.113Z,85.24
2018-05-11T01:47:33.642Z,85.32
2018-05-11T01:50:01.653Z,85.01
2018-05-11T01:52:29.306Z,84.61
2018-05-11T01:54:56.826Z,84.99
2018-05-11T01:57:24.577Z,85.07
2018-05-11T01:59:52.103Z,85.26
2018-05-11T02:02:19.629Z,85.32
2018-05-11T02:04:47.305Z,85.30
2018-05-11T02:07:14.840Z,85.26
2018-05-11T02:09:42.361Z,85.20
2018-05-11T02:12:10.110Z,84.79
2018-05-11T02:14:37.638Z,84.85
2018-05-11T02:17:05.164Z,84.42
2018-05-11T02:19:32.952Z,84.30
2018-05-11T02:22:00.481Z,84.36
2018-05-11T02:24:28.040Z,84.47
2018-05-11T02:26:55.971Z,84.42
2018-05-11T02:29:23.510Z,84.34
2018-05-11T02:31:51.033Z,84.38
2018-05-11T02:34:18.598Z,84.55
2018-05-11T02:36:46.135Z,84.50
2018-05-11T02:39:13.807Z,84.68
2018-05-11T02:41:41.348Z,85.00
2018-05-11T02:44:08.879Z,84.89
2018-05-11T02:46:36.446Z,84.76
2018-05-11T02:49:03.989Z,85.07
2018-05-11T02:51:31.542Z,85.21
2018-05-11T02:53:59.074Z,85.07
2018-05-11T02:56:26.662Z,85.07
2018-05-11T02:58:54.210Z,85.21
2018-05-11T03:01:21.735Z,85.27
2018-05-11T03:03:49.310Z,85.54
2018-05-11T03:06:16.850Z,85.54
2018-05-11T03:08:44.384Z,85.66
2018-05-11T03:11:11.978Z,85.28
2018-05-11T03:13:39.507Z,85.05
2018-05-11T03:16:07.030Z,84.88
2018-05-11T03:18:34.895Z,85.22
2018-05-11T03:21:02.349Z,85.58
2018-05-11T03:23:29.882Z,85.77
2018-05-11T03:25:57.623Z,85.38
2018-05-11T03:28:25.141Z,85.35
2018-05-11T03:30:52.677Z,85.40
2018-05-11T03:33:20.223Z,85.60
2018-05-11T03:35:47.750Z,85.43
2018-05-11T03:38:15.490Z,84.65
2018-05-11T03:40:43.006Z,84.81
2018-05-11T03:43:10.530Z,84.95
2018-05-11T03:45:38.087Z,85.49
2018-05-11T03:48:05.629Z,85.45
2018-05-11T03:50:33.567Z,85.57
2018-05-11T03:53:01.092Z,85.58
2018-05-11T03:55:28.609Z,85.60
2018-05-11T03:57:56.164Z,85.71
2018-05-11T04:00:23.714Z,85.74
2018-05-11T04:03:03.157Z,85.68
2018-05-11T04:05:42.521Z,85.77
2018-05-11T04:08:22.928Z,85.76
2018-05-11T04:10:50.482Z,85.52
2018-05-11T04:13:18.074Z,85.79
2018-05-11T04:15:45.608Z,85.05
2018-05-11T04:18:13.129Z,84.96
2018-05-11T04:20:40.695Z,85.30
2018-05-11T04:23:08.246Z,84.87
2018-05-11T04:25:35.769Z,85.07
2018-05-11T04:28:03.467Z,85.32
2018-05-11T04:30:30.994Z,85.01
2018-05-11T04:32:58.523Z,84.75
2018-05-11T04:35:26.243Z,83.82
2018-05-11T04:37:53.766Z,82.60
2018-05-11T04:40:21.289Z,81.01
2018-05-11T04:42:48.954Z,81.39
2018-05-11T04:45:16.499Z,81.00
2018-05-11T04:47:44.043Z,80.62
2018-05-11T04:50:11.598Z,81.09
2018-05-11T04:52:39.146Z,80.25
2018-05-11T04:55:06.817Z,79.88
2018-05-11T04:57:34.329Z,79.95
2018-05-11T05:00:01.851Z,80.00
2018-05-11T05:02:29.406Z,80.00
2018-05-11T05:04:56.929Z,79.32
2018-05-11T05:07:24.666Z,78.46
2018-05-11T05:09:52.201Z,79.16
2018-05-11T05:12:19.778Z,78.68
2018-05-11T05:14:47.298Z,79.26
2018-05-11T05:17:14.939Z,78.44
2018-05-11T05:19:42.422Z,78.44
2018-05-11T05:22:09.947Z,78.12
2018-05-11T05:24:37.613Z,78.70
2018-05-11T05:27:05.129Z,77.60
2018-05-11T05:29:32.651Z,77.06
2018-05-11T05:32:00.271Z,77.01
2018-05-11T05:34:27.798Z,77.52
2018-05-11T05:36:55.336Z,76.72
2018-05-11T05:39:23.682Z,75.87
2018-05-11T05:41:51.198Z,76.34
2018-05-11T05:44:18.741Z,76.34
2018-05-11T05:46:46.315Z,76.76
2018-05-11T05:49:13.840Z,74.80
2018-05-11T05:51:41.830Z,75.05
2018-05-11T05:54:09.362Z,76.63
2018-05-11T05:56:36.885Z,75.01
2018-05-11T05:59:04.451Z,75.80
2018-05-11T06:01:32.010Z,73.69
2018-05-11T06:03:59.546Z,73.61
2018-05-11T06:06:27.104Z,72.69
2018-05-11T06:08:54.617Z,71.82
2018-05-11T06:11:22.194Z,71.45
2018-05-11T06:13:49.709Z,72.75
2018-05-11T06:16:17.242Z,71.59
2018-05-11T06:18:44.787Z,70.23
2018-05-11T06:21:12.326Z,70.77
2018-05-11T06:23:39.861Z,71.42
2018-05-11T06:26:07.384Z,71.83
2018-05-11T06:28:34.927Z,72.27
2018-05-11T06:31:02.450Z,71.98
2018-05-11T06:33:30.362Z,71.86
2018-05-11T06:35:57.889Z,71.30
2018-05-11T06:38:25.405Z,71.39
2018-05-11T06:40:52.999Z,71.56
2018-05-11T06:43:20.526Z,72.22
2018-05-11T06:45:48.063Z,72.05
2018-05-11T06:48:15.813Z,71.91
2018-05-11T06:50:43.349Z,72.75
2018-05-11T06:53:10.876Z,73.45
2018-05-11T06:55:38.544Z,70.60
2018-05-11T06:58:06.095Z,71.21
2018-05-11T07:00:33.613Z,71.97
2018-05-11T07:03:01.155Z,72.15
2018-05-11T07:05:29.118Z,72.13
2018-05-11T07:07:56.691Z,71.84
2018-05-11T07:10:24.198Z,70.28
2018-05-11T07:12:51.958Z,71.63
2018-05-11T07:15:19.478Z,69.73
2018-05-11T07:17:47.456Z,69.12
2018-05-11T07:20:14.975Z,70.07
2018-05-11T07:22:42.493Z,68.35
2018-05-11T07:25:10.442Z,67.87
2018-05-11T07:27:37.972Z,66.52
2018-05-11T07:30:05.501Z,67.11
2018-05-11T07:32:33.041Z,69.91
2018-05-11T07:35:00.624Z,69.57
2018-05-11T07:37:28.130Z,70.54
2018-05-11T07:39:55.674Z,70.72
2018-05-11T07:42:23.237Z,67.34
2018-05-11T07:44:50.764Z,64.64
2018-05-11T07:47:18.791Z,66.00
2018-05-11T07:49:46.311Z,64.46
2018-05-11T07:52:13.837Z,66.61
2018-05-11T07:54:41.378Z,65.18
2018-05-11T07:57:08.921Z,65.86
2018-05-11T07:59:36.489Z,68.49
2018-05-11T08:02:04.050Z,68.94
2018-05-11T08:04:31.561Z,68.74
2018-05-11T08:06:59.102Z,67.58
2018-05-11T08:09:26.622Z,67.38
2018-05-11T08:11:54.198Z,65.78
2018-05-11T08:14:21.788Z,63.96
2018-05-11T08:16:49.279Z,65.29
2018-05-11T08:19:16.833Z,60.67
2018-05-11T08:21:44.349Z,64.10
2018-05-11T08:24:11.889Z,63.88
2018-05-11T08:26:39.496Z,64.81
2018-05-11T08:29:07.038Z,65.02
2018-05-11T08:31:34.594Z,64.16
2018-05-11T08:34:02.151Z,64.78
2018-05-11T08:36:29.702Z,65.44
2018-05-11T08:38:57.227Z,63.02
2018-05-11T08:41:24.783Z,61.45
2018-05-11T08:43:52.301Z,61.98
2018-05-11T08:46:19.939Z,61.74
2018-05-11T08:48:47.422Z,61.51
2018-05-11T08:51:14.954Z,59.15
2018-05-11T08:53:42.498Z,59.78
2018-05-11T08:56:10.023Z,61.07
2018-05-11T08:58:37.579Z,61.51
2018-05-11T09:01:05.105Z,62.78
2018-05-11T09:03:32.646Z,62.27
2018-05-11T09:06:00.182Z,60.94
2018-05-11T09:08:27.705Z,60.09
2018-05-11T09:10:55.245Z,57.13
2018-05-11T09:13:22.778Z,59.34
2018-05-11T09:15:50.510Z,59.81
2018-05-11T09:18:18.028Z,59.42
2018-05-11T09:20:45.545Z,56.21
2018-05-11T09:23:13.081Z,55.13
2018-05-11T09:25:40.618Z,54.12
2018-05-11T09:28:08.134Z,51.45
2018-05-11T09:30:35.747Z,52.01
2018-05-11T09:33:03.274Z,53.77
2018-05-11T09:35:30.798Z,55.60
2018-05-11T09:37:58.393Z,56.41
2018-05-11T09:40:25.920Z,54.96
2018-05-11T09:42:53.446Z,58.47
2018-05-11T09:45:20.985Z,54.84
2018-05-11T09:47:48.511Z,55.69
2018-05-11T09:50:16.226Z,57.30
2018-05-11T09:52:43.762Z,58.42
2018-05-11T09:55:11.277Z,59.08
2018-05-11T09:57:38.830Z,57.89
2018-05-11T10:00:06.374Z,53.06
2018-05-11T10:02:33.959Z,55.19
2018-05-11T10:05:01.487Z,51.39
2018-05-11T10:07:29.005Z,54.46
2018-05-11T10:09:56.591Z,54.29
2018-05-11T10:12:24.118Z,53.23
2018-05-11T10:14:51.750Z,53.69
2018-05-11T10:17:19.295Z,50.01
2018-05-11T10:19:46.905Z,52.17
2018-05-11T10:22:14.434Z,51.88
2018-05-11T10:24:41.956Z,54.42
2018-05-11T10:27:09.509Z,55.29
2018-05-11T10:29:37.053Z,57.58
2018-05-11T10:32:04.592Z,58.42
2018-05-11T10:34:32.198Z,59.21
2018-05-11T10:36:59.731Z,60.17
2018-05-11T10:39:27.271Z,57.92
2018-05-11T10:41:55.162Z,60.08
2018-05-11T10:44:22.678Z,58.86
2018-05-11T10:46:50.200Z,56.02
2018-05-11T10:49:17.754Z,57.05
2018-05-11T10:51:45.762Z,54.49
2018-05-11T10:54:13.295Z,52.90
2018-05-11T10:56:40.839Z,54.08
2018-05-11T10:59:08.409Z,56.39
2018-05-11T11:01:35.944Z,53.51
2018-05-11T11:04:03.636Z,55.40
2018-05-11T11:06:31.157Z,56.26
2018-05-11T11:08:58.673Z,53.93
2018-05-11T11:11:26.249Z,51.95
2018-05-11T11:13:53.898Z,50.37
2018-05-11T11:16:21.421Z,51.84
2018-05-11T11:18:48.966Z,53.90
2018-05-11T11:21:16.501Z,54.22
2018-05-11T11:23:44.384Z,53.24
2018-05-11T11:26:11.910Z,48.72
2018-05-11T11:28:39.429Z,48.47
2018-05-11T11:31:07.049Z,49.41
2018-05-11T11:33:34.522Z,49.86
2018-05-11T11:36:02.087Z,51.89
2018-05-11T11:38:29.628Z,53.65
2018-05-11T11:40:57.167Z,52.28
2018-05-11T11:43:24.901Z,49.64
2018-05-11T11:45:52.431Z,49.96
2018-05-11T11:48:19.952Z,52.15
2018-05-11T11:50:47.507Z,51.17
2018-05-11T11:53:15.039Z,51.87
2018-05-11T11:55:42.614Z,54.51
2018-05-11T11:58:10.146Z,52.17
2018-05-11T12:00:37.713Z,52.18
2018-05-11T12:03:05.262Z,52.50
2018-05-11T12:05:32.785Z,53.21
2018-05-11T12:08:00.340Z,52.78
2018-05-11T12:10:27.873Z,50.91
2018-05-11T12:12:55.461Z,49.33
2018-05-11T12:15:23.010Z,52.00
2018-05-11T12:17:50.533Z,52.42
2018-05-11T12:20:18.089Z,51.20
2018-05-11T12:22:45.639Z,49.58
2018-05-11T12:25:13.185Z,48.40
2018-05-11T12:27:40.730Z,49.18
2018-05-11T12:30:08.305Z,49.55
2018-05-11T12:32:35.821Z,46.90
2018-05-11T12:35:03.351Z,47.87
2018-05-11T12:37:31.001Z,49.55
2018-05-11T12:39:58.610Z,49.31
2018-05-11T12:42:26.075Z,49.20
2018-05-11T12:44:53.645Z,50.42
2018-05-11T12:47:21.179Z,50.01
2018-05-11T12:49:48.743Z,49.97
2018-05-11T12:52:16.301Z,49.70
2018-05-11T12:57:17.938Z,49.81
2018-05-11T12:59:45.477Z,50.19
2018-05-11T13:02:13.027Z,49.74
2018-05-11T13:04:40.615Z,50.03
2018-05-11T13:07:08.179Z,48.75
2018-05-11T13:09:35.727Z,49.00
2018-05-11T13:12:03.274Z,48.62
2018-05-11T13:14:30.837Z,47.63
2018-05-11T13:16:58.425Z,46.25
2018-05-11T13:19:25.960Z,49.27
2018-05-11T13:21:53.481Z,46.93
2018-05-11T13:24:21.020Z,46.57
2018-05-11T13:26:48.560Z,47.22
2018-05-11T13:29:16.086Z,47.91
2018-05-11T13:31:43.979Z,48.69
2018-05-11T13:34:11.510Z,48.77
2018-05-11T13:36:39.050Z,46.46
2018-05-11T13:39:06.605Z,46.66
2018-05-11T13:41:34.121Z,47.35
2018-05-11T13:44:01.718Z,46.79
2018-05-11T13:46:29.248Z,48.01
2018-05-11T13:48:56.762Z,47.48
2018-05-11T13:51:24.442Z,46.82
2018-05-11T13:53:51.962Z,47.73
2018-05-11T13:56:19.571Z,46.90
2018-05-11T13:58:47.067Z,46.63
2018-05-11T14:01:14.581Z,45.65
2018-05-11T14:03:42.138Z,48.04
2018-05-11T14:06:09.681Z,45.60
2018-05-11T14:08:37.226Z,46.49
2018-05-11T14:11:04.763Z,44.02
2018-05-11T14:13:32.278Z,45.43
2018-05-11T14:15:59.826Z,45.13
2018-05-11T14:18:27.347Z,46.54
2018-05-11T14:20:54.885Z,46.99
2018-05-11T14:24:42.497Z,45.87
2018-05-11T14:27:10.014Z,42.98
2018-05-11T14:29:37.567Z,44.97
2018-05-11T14:32:05.142Z,44.95
2018-05-11T14:34:32.709Z,46.80
2018-05-11T14:37:00.218Z,44.57
2018-05-11T14:39:27.761Z,45.32
2018-05-11T14:41:55.413Z,44.78
2018-05-11T14:44:22.934Z,44.81
2018-05-11T14:46:50.465Z,43.51
2018-05-11T14:49:18.409Z,44.51
2018-05-11T14:51:45.929Z,45.06
2018-05-11T14:54:13.450Z,45.67
2018-05-11T14:56:40.992Z,45.76
2018-05-11T14:59:08.514Z,45.43
2018-05-11T15:01:36.060Z,45.78
2018-05-11T15:04:03.590Z,44.98
2018-05-11T15:06:31.137Z,43.64
2018-05-11T15:08:58.672Z,43.23
2018-05-11T15:11:26.188Z,44.42
2018-05-11T15:13:53.731Z,44.88
2018-05-11T15:16:21.246Z,44.97
2018-05-11T15:18:48.801Z,44.37
2018-05-11T15:21:16.314Z,43.54
2018-05-11T15:23:43.940Z,43.95
2018-05-11T15:26:11.399Z,43.50
2018-05-11T15:28:38.948Z,42.60
2018-05-11T15:31:06.495Z,42.26
2018-05-11T15:33:34.059Z,43.73
2018-05-11T15:36:01.582Z,41.91
2018-05-11T15:38:29.104Z,42.23
2018-05-11T15:40:56.641Z,42.64
2018-05-11T15:43:24.166Z,43.14
2018-05-11T15:45:51.711Z,44.20
2018-05-11T15:48:19.221Z,43.55
2018-05-11T15:50:46.741Z,43.31
2018-05-11T15:53:14.340Z,43.78
2018-05-11T15:55:41.864Z,43.03
2018-05-11T15:58:09.428Z,41.95
2018-05-11T16:00:37.039Z,43.33
2018-05-11T16:03:04.597Z,41.50
2018-05-11T16:05:32.157Z,41.78
2018-05-11T16:07:59.722Z,43.38
2018-05-11T16:10:27.251Z,42.66
2018-05-11T16:12:54.902Z,42.69
2018-05-11T16:15:22.351Z,41.68
2018-05-11T16:17:49.893Z,41.41
2018-05-11T16:20:17.442Z,41.83
2018-05-11T16:22:45.015Z,40.65
2018-05-11T16:25:12.669Z,40.45
2018-05-11T16:27:40.203Z,41.78
2018-05-11T16:30:07.730Z,40.43
2018-05-11T16:32:35.270Z,41.30
2018-05-11T16:35:02.808Z,41.64
2018-05-11T16:37:30.378Z,41.27
2018-05-11T16:39:58.121Z,42.94
2018-05-11T16:42:25.643Z,42.90
2018-05-11T16:44:53.190Z,42.24
2018-05-11T16:47:20.708Z,42.72
2018-05-11T16:49:48.251Z,41.44
2018-05-11T16:52:15.769Z,39.47
2018-05-11T16:54:43.315Z,40.64
2018-05-11T16:57:10.859Z,42.51
2018-05-11T16:59:38.393Z,41.81
2018-05-11T17:02:05.918Z,41.11
2018-05-11T17:04:33.891Z,39.18
2018-05-11T17:07:01.423Z,40.21
2018-05-11T17:09:28.955Z,39.63
2018-05-11T17:11:56.602Z,39.93
2018-05-11T17:14:24.113Z,39.40
2018-05-11T17:16:51.635Z,40.55
2018-05-11T17:19:19.189Z,41.19
2018-05-11T17:21:46.701Z,40.72
2018-05-11T17:24:14.351Z,40.22
2018-05-11T17:26:41.889Z,40.85
2018-05-11T17:29:09.403Z,39.96
2018-05-11T17:31:36.957Z,41.83
2018-05-11T17:34:04.478Z,40.69
2018-05-11T17:36:32.020Z,41.92
2018-05-11T17:39:00.153Z,41.92
2018-05-11T17:41:27.659Z,42.54
2018-05-11T17:43:55.173Z,42.96
2018-05-11T17:46:22.764Z,42.50
2018-05-11T17:48:50.286Z,43.80
2018-05-11T17:51:17.817Z,43.11
2018-05-11T17:53:45.366Z,43.62
2018-05-11T17:56:12.895Z,45.97
2018-05-11T17:58:40.472Z,45.01
2018-05-11T18:01:07.997Z,44.33
2018-05-11T18:03:35.533Z,44.42
2018-05-11T18:06:03.049Z,43.89
2018-05-11T18:08:30.639Z,42.50
2018-05-11T18:10:58.159Z,43.33
2018-05-11T18:13:25.673Z,43.78
2018-05-11T18:15:53.378Z,44.44
2018-05-11T18:18:20.897Z,44.56
2018-05-11T18:20:48.415Z,45.46
2018-05-11T18:23:15.973Z,45.19
2018-05-11T18:25:43.494Z,45.19
2018-05-11T18:28:11.086Z,46.25
2018-05-11T18:30:38.781Z,45.81
2018-05-11T18:33:06.307Z,45.96
2018-05-11T18:35:33.835Z,45.78
2018-05-11T18:38:01.427Z,46.49
2018-05-11T18:40:28.957Z,47.20
2018-05-11T18:42:56.487Z,46.21
2018-05-11T18:45:24.138Z,46.34
2018-05-11T18:47:51.723Z,46.98
2018-05-11T18:50:19.257Z,47.15
2018-05-11T18:52:46.804Z,48.12
2018-05-11T18:55:14.816Z,47.54
2018-05-11T18:57:42.422Z,47.67
2018-05-11T19:00:09.970Z,47.35
2018-05-11T19:02:37.516Z,48.41
2018-05-11T19:05:05.861Z,48.96
2018-05-11T19:07:33.446Z,47.85
2018-05-11T19:10:00.972Z,48.08
2018-05-11T19:12:28.557Z,49.22
2018-05-11T19:14:56.312Z,48.66
2018-05-11T19:17:23.845Z,49.19
2018-05-11T19:19:51.802Z,49.72
2018-05-11T19:22:19.320Z,50.90
2018-05-11T19:24:46.856Z,51.59
2018-05-11T19:27:14.401Z,51.23
2018-05-11T19:29:41.943Z,51.89
2018-05-11T19:32:09.615Z,51.17
2018-05-11T19:34:37.968Z,52.46
2018-05-11T19:37:05.503Z,51.80
2018-05-11T19:39:33.041Z,51.98
2018-05-11T19:42:00.611Z,52.26
2018-05-11T19:44:28.276Z,51.31
2018-05-11T19:46:55.806Z,50.53
2018-05-11T19:49:23.321Z,50.78
2018-05-11T19:51:50.865Z,50.95
2018-05-11T19:54:18.402Z,50.43
2018-05-11T19:56:45.959Z,50.79
2018-05-11T19:59:13.486Z,50.40
2018-05-11T20:01:41.048Z,50.75
2018-05-11T20:04:08.643Z,50.28
2018-05-11T20:06:36.174Z,50.35
2018-05-11T20:09:03.861Z,50.48
2018-05-11T20:11:31.387Z,50.44
2018-05-11T20:13:58.922Z,50.42
2018-05-11T20:16:26.471Z,50.89
2018-05-11T20:18:53.994Z,51.22
2018-05-11T20:21:21.638Z,51.30
2018-05-11T20:23:49.170Z,51.39
2018-05-11T20:26:17.338Z,51.61
2018-05-11T20:28:44.891Z,52.14
2018-05-11T20:31:12.415Z,52.79
2018-05-11T20:33:40.061Z,52.41
2018-05-11T20:36:07.577Z,52.31
2018-05-11T20:38:35.101Z,52.51
2018-05-11T20:41:03.675Z,52.74
2018-05-11T20:43:31.194Z,52.97
2018-05-11T20:45:58.734Z,52.72
2018-05-11T20:48:26.286Z,52.98
2018-05-11T20:50:53.842Z,52.87
2018-05-11T20:53:21.789Z,53.52
2018-05-11T20:55:49.314Z,53.70
2018-05-11T20:58:16.832Z,53.66
2018-05-11T21:00:44.697Z,54.53
2018-05-11T21:03:12.250Z,53.75
2018-05-11T21:05:39.841Z,54.06
2018-05-11T21:08:08.001Z,53.89
2018-05-11T21:10:35.589Z,54.04
2018-05-11T21:13:03.133Z,54.13
2018-05-11T21:15:30.681Z,54.58
2018-05-11T21:17:58.225Z,54.41
2018-05-11T21:20:25.855Z,54.55
2018-05-11T21:22:53.422Z,54.49
2018-05-11T21:25:20.959Z,54.40
2018-05-11T21:27:48.510Z,54.56
2018-05-11T21:30:16.109Z,54.84
2018-05-11T21:32:43.635Z,54.77
2018-05-11T21:35:11.165Z,55.45
2018-05-11T21:37:38.738Z,55.44
2018-05-11T21:40:06.262Z,55.68
2018-05-11T21:42:33.781Z,54.87
2018-05-11T21:45:01.362Z,55.05
2018-05-11T21:47:28.884Z,55.29
2018-05-11T21:49:56.414Z,54.62
2018-05-11T21:52:23.959Z,55.05
2018-05-11T21:54:51.629Z,55.45
2018-05-11T21:57:19.154Z,55.27
2018-05-11T21:59:46.699Z,55.24
2018-05-11T22:02:14.250Z,55.66
2018-05-11T22:04:41.778Z,55.64
2018-05-11T22:07:09.438Z,55.71
2018-05-11T22:09:36.967Z,56.16
2018-05-11T22:12:04.497Z,56.02
2018-05-11T22:14:32.059Z,55.85
2018-05-11T22:16:59.602Z,56.24
2018-05-11T22:19:27.295Z,56.19
2018-05-11T22:21:54.828Z,56.41
2018-05-11T22:24:22.376Z,56.23
2018-05-11T22:26:50.051Z,57.18
2018-05-11T22:29:17.592Z,56.89
2018-05-11T22:31:45.126Z,56.80
2018-05-11T22:34:12.686Z,57.08
2018-05-11T22:36:40.230Z,57.76
2018-05-11T22:39:07.885Z,57.11
2018-05-11T22:41:35.418Z,56.95
2018-05-11T22:44:02.976Z,57.22
2018-05-11T22:46:30.558Z,57.21
2018-05-11T22:48:58.434Z,57.79
2018-05-11T22:51:25.968Z,57.75
2018-05-11T22:53:53.495Z,56.90
2018-05-11T22:56:21.067Z,57.67
2018-05-11T22:58:48.593Z,57.58
2018-05-11T23:01:16.113Z,57.89
2018-05-11T23:03:43.820Z,57.49
2018-05-11T23:06:11.336Z,57.56
2018-05-11T23:08:38.882Z,58.23
2018-05-11T23:11:06.442Z,58.05
2018-05-11T23:13:33.971Z,58.29
2018-05-11T23:16:01.683Z,58.72
2018-05-11T23:18:29.214Z,58.95
2018-05-11T23:20:56.763Z,59.03
2018-05-11T23:23:24.318Z,59.14
2018-05-11T23:25:51.917Z,59.03
2018-05-11T23:28:19.462Z,58.50
2018-05-11T23:30:46.987Z,58.78
2018-05-11T23:33:14.583Z,58.82
2018-05-11T23:35:42.114Z,58.92
2018-05-11T23:38:09.708Z,58.66
2018-05-11T23:40:37.261Z,59.23
2018-05-11T23:43:04.794Z,59.40
2018-05-11T23:45:32.357Z,59.80
2018-05-11T23:47:59.890Z,59.61
2018-05-11T23:50:27.707Z,59.78
2018-05-11T23:52:55.239Z,60.04
2018-05-11T23:55:22.778Z,59.52
2018-05-11T23:57:50.326Z,58.98
